Time;durP1;ratioP1;P1;durP2;ratioP2;P2;SDS_P1;SDS_P2;PMS_P1;PMS_P2;Temp;Humidity;BMP_temperature;BMP_pressure;BME280_temperature;BME280_humidity;BME280_pressure;Samples;Min_cycle;Max_cycle;Signal;HPM_P1;HPM_P2
2022/07/18 00:02:05;;;;;;;0.00;0.00;;;;;;;;;;5034065;28;20452;-90
2022/07/18 00:04:31;;;;;;;0.00;0.00;;;;;;;;;;5016890;28;20079;-88
2022/07/18 00:06:58;;;;;;;0.00;0.00;;;;;;;;;;5016768;28;20063;-89
2022/07/18 00:09:24;;;;;;;0.00;0.00;;;;;;;;;;5016927;28;20055;-90
2022/07/18 00:11:51;;;;;;;0.00;0.00;;;;;;;;;;5016143;28;20037;-88
2022/07/18 00:14:17;;;;;;;0.00;0.00;;;;;;;;;;4999852;28;20053;-90
2022/07/18 00:16:43;;;;;;;0.00;0.00;;;;;;;;;;5016084;28;20049;-90
2022/07/18 00:19:09;;;;;;;0.00;0.00;;;;;;;;;;5016457;28;20051;-89
2022/07/18 00:21:35;;;;;;;0.00;0.00;;;;;;;;;;5015811;28;20450;-89
2022/07/18 00:24:02;;;;;;;0.00;0.00;;;;;;;;;;5016331;28;20045;-89
2022/07/18 00:26:28;;;;;;;0.00;0.00;;;;;;;;;;5016236;28;20050;-91
2022/07/18 00:28:54;;;;;;;0.00;0.00;;;;;;;;;;5016205;28;20109;-88
2022/07/18 00:31:20;;;;;;;0.00;0.00;;;;;;;;;;5015743;28;20045;-89
2022/07/18 00:33:46;;;;;;;0.00;0.00;;;;;;;;;;5016409;28;20086;-90
2022/07/18 00:36:12;;;;;;;0.00;0.00;;;;;;;;;;5016052;28;20049;-91
2022/07/18 00:38:38;;;;;;;0.00;0.00;;;;;;;;;;5015957;28;20045;-89
2022/07/18 00:41:04;;;;;;;0.00;0.00;;;;;;;;;;5033722;28;20124;-89
2022/07/18 00:43:30;;;;;;;0.00;0.00;;;;;;;;;;5015802;28;20389;-90
2022/07/18 00:45:57;;;;;;;0.00;0.00;;;;;;;;;;5018239;28;20083;-92
2022/07/18 00:48:23;;;;;;;0.00;0.00;;;;;;;;;;5016701;28;20045;-88
2022/07/18 00:50:49;;;;;;;0.00;0.00;;;;;;;;;;5015844;28;20041;-90
2022/07/18 00:53:15;;;;;;;0.00;0.00;;;;;;;;;;5015919;28;20048;-90
2022/07/18 00:55:43;;;;;;;0.00;0.00;;;;;;;;;;5015904;28;20077;-90
2022/07/18 00:58:10;;;;;;;0.00;0.00;;;;;;;;;;5015618;28;20049;-87
2022/07/18 01:03:21;;;;;;;0.00;0.00;;;;;;;;;;5015504;28;20361;-91
2022/07/18 01:05:47;;;;;;;0.00;0.00;;;;;;;;;;5015484;28;20276;-88
2022/07/18 01:08:14;;;;;;;0.00;0.00;;;;;;;;;;5015281;28;20094;-87
2022/07/18 01:10:40;;;;;;;0.00;0.00;;;;;;;;;;5015705;28;20563;-90
2022/07/18 01:13:06;;;;;;;0.00;0.00;;;;;;;;;;5015246;28;20065;-89
2022/07/18 01:15:32;;;;;;;0.00;0.00;;;;;;;;;;5015356;28;20429;-89
2022/07/18 01:17:58;;;;;;;0.00;0.00;;;;;;;;;;5015200;28;20049;-90
2022/07/18 01:20:28;;;;;;;0.75;0.20;;;;;;;;;;5015339;28;20497;-87
2022/07/18 01:22:54;;;;;;;0.00;0.00;;;;;;;;;;5032813;28;20068;-89
2022/07/18 01:25:20;;;;;;;0.00;0.00;;;;;;;;;;5015504;28;20037;-90
2022/07/18 01:27:46;;;;;;;0.30;0.30;;;;;;;;;;5015470;28;20490;-90
2022/07/18 01:30:12;;;;;;;0.00;0.00;;;;;;;;;;5015277;28;20033;-89
2022/07/18 01:32:38;;;;;;;0.00;0.00;;;;;;;;;;5015009;28;20073;-87
2022/07/18 01:35:05;;;;;;;0.00;0.00;;;;;;;;;;5015187;28;20038;-89
2022/07/18 01:37:31;;;;;;;0.00;0.00;;;;;;;;;;5015164;28;20041;-89
2022/07/18 01:39:57;;;;;;;0.00;0.00;;;;;;;;;;5015004;28;20053;-91
2022/07/18 01:42:23;;;;;;;0.00;0.00;;;;;;;;;;5014866;28;20061;-89
2022/07/18 01:44:49;;;;;;;0.00;0.00;;;;;;;;;;5015363;28;20037;-92
2022/07/18 01:47:15;;;;;;;0.00;0.00;;;;;;;;;;5015135;28;20393;-90
2022/07/18 01:49:41;;;;;;;0.00;0.00;;;;;;;;;;5015225;28;20406;-89
2022/07/18 01:52:07;;;;;;;0.00;0.00;;;;;;;;;;5014812;28;20408;-89
2022/07/18 01:54:34;;;;;;;0.00;0.00;;;;;;;;;;5014936;28;20374;-90
2022/07/18 01:57:01;;;;;;;0.00;0.00;;;;;;;;;;4998534;28;20461;-89
2022/07/18 01:59:27;;;;;;;0.00;0.00;;;;;;;;;;5015021;28;20046;-88
2022/07/18 02:01:53;;;;;;;0.00;0.00;;;;;;;;;;5014794;28;20121;-89
2022/07/18 02:04:19;;;;;;;0.00;0.00;;;;;;;;;;5014698;28;20041;-88
2022/07/18 02:06:45;;;;;;;0.00;0.00;;;;;;;;;;5015047;28;20053;-87
2022/07/18 02:09:12;;;;;;;0.00;0.00;;;;;;;;;;5014614;28;20053;-89
2022/07/18 02:11:38;;;;;;;0.00;0.00;;;;;;;;;;5016543;28;20049;-88
2022/07/18 02:14:05;;;;;;;0.00;0.00;;;;;;;;;;5018605;28;20049;-90
2022/07/18 02:16:31;;;;;;;0.00;0.00;;;;;;;;;;5019074;28;20366;-90
2022/07/18 02:18:57;;;;;;;0.00;0.00;;;;;;;;;;5036398;28;20034;-89
2022/07/18 02:21:23;;;;;;;0.00;0.00;;;;;;;;;;5018897;28;20041;-89
2022/07/18 02:23:54;;;;;;;0.00;0.00;;;;;;;;;;5018430;28;20037;-90
2022/07/18 02:26:20;;;;;;;0.00;0.00;;;;;;;;;;5018958;28;20485;-89
2022/07/18 02:28:46;;;;;;;0.00;0.00;;;;;;;;;;5018493;28;20046;-90
2022/07/18 02:31:12;;;;;;;0.00;0.00;;;;;;;;;;5018486;28;20038;-91
2022/07/18 02:33:38;;;;;;;0.00;0.00;;;;;;;;;;5018702;28;20053;-90
2022/07/18 02:36:04;;;;;;;0.00;0.00;;;;;;;;;;5018505;28;20049;-89
2022/07/18 02:38:30;;;;;;;0.00;0.00;;;;;;;;;;5018166;28;20041;-90
2022/07/18 02:40:56;;;;;;;0.00;0.00;;;;;;;;;;5018449;28;20045;-90
2022/07/18 02:43:22;;;;;;;0.00;0.00;;;;;;;;;;5001668;28;20449;-89
2022/07/18 02:45:48;;;;;;;0.00;0.00;;;;;;;;;;5018273;28;20112;-88
2022/07/18 02:48:14;;;;;;;0.00;0.00;;;;;;;;;;5018037;28;20453;-90
2022/07/18 02:50:40;;;;;;;0.00;0.00;;;;;;;;;;5018184;28;20148;-92
2022/07/18 02:53:06;;;;;;;0.00;0.00;;;;;;;;;;5036090;28;20136;-91
2022/07/18 02:55:32;;;;;;;0.00;0.00;;;;;;;;;;5018353;28;20132;-91
2022/07/18 02:57:58;;;;;;;0.00;0.00;;;;;;;;;;5035937;28;20052;-91
2022/07/18 03:00:24;;;;;;;0.00;0.00;;;;;;;;;;5018363;28;20045;-90
2022/07/18 03:02:50;;;;;;;0.00;0.00;;;;;;;;;;5017973;28;20049;-91
2022/07/18 03:05:16;;;;;;;0.00;0.00;;;;;;;;;;5035849;28;20041;-90
2022/07/18 03:07:42;;;;;;;0.00;0.00;;;;;;;;;;5017685;28;20037;-90
2022/07/18 03:10:08;;;;;;;0.00;0.00;;;;;;;;;;5018063;28;20042;-91
2022/07/18 03:12:34;;;;;;;0.00;0.00;;;;;;;;;;5017558;28;20045;-89
2022/07/18 03:15:00;;;;;;;0.00;0.00;;;;;;;;;;5017536;28;20110;-90
2022/07/18 03:17:26;;;;;;;0.00;0.00;;;;;;;;;;5036115;28;20045;-91
2022/07/18 03:19:52;;;;;;;0.00;0.00;;;;;;;;;;5018221;28;20044;-88
2022/07/18 03:22:18;;;;;;;0.00;0.00;;;;;;;;;;5017228;28;20128;-90
2022/07/18 03:24:44;;;;;;;0.00;0.00;;;;;;;;;;5016874;28;20037;-89
2022/07/18 03:27:10;;;;;;;0.00;0.00;;;;;;;;;;5018148;28;20443;-90
2022/07/18 03:29:36;;;;;;;0.00;0.00;;;;;;;;;;5017340;28;20045;-89
2022/07/18 03:32:02;;;;;;;0.00;0.00;;;;;;;;;;5017842;28;20133;-89
2022/07/18 03:34:28;;;;;;;0.00;0.00;;;;;;;;;;5017486;28;20167;-89
2022/07/18 03:36:53;;;;;;;0.00;0.00;;;;;;;;;;5017227;28;20542;-88
2022/07/18 03:39:20;;;;;;;0.00;0.00;;;;;;;;;;5017130;28;20096;-89
2022/07/18 03:41:46;;;;;;;0.00;0.00;;;;;;;;;;5017051;28;20048;-89
2022/07/18 03:44:12;;;;;;;0.00;0.00;;;;;;;;;;5016947;28;20045;-89
2022/07/18 03:46:37;;;;;;;0.00;0.00;;;;;;;;;;5017091;28;20049;-89
2022/07/18 03:49:03;;;;;;;0.00;0.00;;;;;;;;;;5034469;28;20034;-88
2022/07/18 03:51:29;;;;;;;0.00;0.00;;;;;;;;;;5016951;28;20076;-88
2022/07/18 03:53:55;;;;;;;0.00;0.00;;;;;;;;;;5034392;28;20073;-89
2022/07/18 03:56:21;;;;;;;0.00;0.00;;;;;;;;;;5017144;28;20044;-89
2022/07/18 03:58:47;;;;;;;0.00;0.00;;;;;;;;;;5016597;28;20378;-89
2022/07/18 04:01:13;;;;;;;0.10;0.10;;;;;;;;;;5016963;28;20052;-89
2022/07/18 04:03:39;;;;;;;0.00;0.00;;;;;;;;;;5016402;28;20136;-92
2022/07/18 04:06:05;;;;;;;0.00;0.00;;;;;;;;;;5016739;28;20566;-88
2022/07/18 04:08:31;;;;;;;0.00;0.00;;;;;;;;;;5016698;28;20045;-88
2022/07/18 04:10:57;;;;;;;0.00;0.00;;;;;;;;;;5034582;28;20093;-89
2022/07/18 04:13:23;;;;;;;0.00;0.00;;;;;;;;;;5034001;28;20061;-88
2022/07/18 04:15:49;;;;;;;0.00;0.00;;;;;;;;;;5016772;28;20049;-89
2022/07/18 04:18:15;;;;;;;0.00;0.00;;;;;;;;;;5016441;28;20448;-89
2022/07/18 04:20:41;;;;;;;0.00;0.00;;;;;;;;;;5016583;28;20049;-88
2022/07/18 04:23:08;;;;;;;0.00;0.00;;;;;;;;;;5016692;28;20037;-89
2022/07/18 04:25:36;;;;;;;0.00;0.00;;;;;;;;;;5016119;28;20044;-90
2022/07/18 04:28:03;;;;;;;0.00;0.00;;;;;;;;;;5016553;28;20461;-89
2022/07/18 04:30:29;;;;;;;0.00;0.00;;;;;;;;;;5016265;28;20507;-90
2022/07/18 04:32:55;;;;;;;0.00;0.00;;;;;;;;;;5033711;28;20084;-90
2022/07/18 04:35:22;;;;;;;0.05;0.00;;;;;;;;;;5015967;28;20052;-90
2022/07/18 04:37:48;;;;;;;0.00;0.00;;;;;;;;;;4999999;28;20049;-89
2022/07/18 04:40:15;;;;;;;0.00;0.00;;;;;;;;;;4999674;28;20049;-90
2022/07/18 04:42:41;;;;;;;0.00;0.00;;;;;;;;;;5033887;28;20045;-90
2022/07/18 04:45:08;;;;;;;0.00;0.00;;;;;;;;;;5016010;28;20493;-91
2022/07/18 04:47:34;;;;;;;0.00;0.00;;;;;;;;;;5033572;28;20077;-91
2022/07/18 04:50:00;;;;;;;0.00;0.00;;;;;;;;;;5015500;28;20046;-90
2022/07/18 04:52:26;;;;;;;0.00;0.00;;;;;;;;;;5033596;28;20060;-89
2022/07/18 04:54:52;;;;;;;0.00;0.00;;;;;;;;;;5034446;28;20124;-92
2022/07/18 04:57:18;;;;;;;0.00;0.00;;;;;;;;;;5016068;28;20084;-90
2022/07/18 04:59:46;;;;;;;0.00;0.00;;;;;;;;;;5016124;28;20045;-90
2022/07/18 05:02:12;;;;;;;0.00;0.00;;;;;;;;;;5000412;28;20044;-89
2022/07/18 05:04:39;;;;;;;0.00;0.00;;;;;;;;;;5015583;28;20042;-90
2022/07/18 05:07:06;;;;;;;0.00;0.00;;;;;;;;;;5016277;28;20037;-91
2022/07/18 05:09:32;;;;;;;0.00;0.00;;;;;;;;;;5033515;28;20052;-91
2022/07/18 05:11:58;;;;;;;0.00;0.00;;;;;;;;;;5016008;28;20041;-93
2022/07/18 05:14:26;;;;;;;0.00;0.00;;;;;;;;;;5015865;28;20492;-92
2022/07/18 05:16:52;;;;;;;0.00;0.00;;;;;;;;;;5016021;28;20045;-91
2022/07/18 05:19:18;;;;;;;0.00;0.00;;;;;;;;;;5015697;28;20175;-90
2022/07/18 05:21:44;;;;;;;0.00;0.00;;;;;;;;;;5016056;28;20052;-93
2022/07/18 05:24:11;;;;;;;0.00;0.00;;;;;;;;;;5015967;28;20445;-93
2022/07/18 05:26:37;;;;;;;0.00;0.00;;;;;;;;;;5015841;28;20392;-93
2022/07/18 05:29:03;;;;;;;0.00;0.00;;;;;;;;;;5015519;28;20083;-92
2022/07/18 05:31:29;;;;;;;0.00;0.00;;;;;;;;;;4999035;28;20034;-92
2022/07/18 05:33:55;;;;;;;0.00;0.00;;;;;;;;;;5015744;28;20435;-90
2022/07/18 05:36:21;;;;;;;0.00;0.00;;;;;;;;;;5015398;28;20049;-91
2022/07/18 05:38:47;;;;;;;0.00;0.00;;;;;;;;;;5015634;28;20067;-92
2022/07/18 05:41:13;;;;;;;0.40;0.10;;;;;;;;;;5015564;28;20037;-85
2022/07/18 05:43:39;;;;;;;0.00;0.00;;;;;;;;;;5032894;28;20045;-88
2022/07/18 05:46:06;;;;;;;0.00;0.00;;;;;;;;;;5014506;28;20392;-87
2022/07/18 05:48:32;;;;;;;0.00;0.00;;;;;;;;;;5015036;28;20037;-91
2022/07/18 05:50:58;;;;;;;0.00;0.00;;;;;;;;;;5032410;28;20133;-88
2022/07/18 05:53:23;;;;;;;0.00;0.00;;;;;;;;;;5015025;28;20052;-86
2022/07/18 05:55:49;;;;;;;0.00;0.00;;;;;;;;;;5014771;28;20510;-88
2022/07/18 05:58:15;;;;;;;0.00;0.00;;;;;;;;;;5014845;28;20041;-87
2022/07/18 06:00:41;;;;;;;0.00;0.00;;;;;;;;;;5014797;28;20103;-87
2022/07/18 06:03:08;;;;;;;0.00;0.00;;;;;;;;;;5015092;28;20073;-88
2022/07/18 06:05:34;;;;;;;0.00;0.00;;;;;;;;;;5014603;28;20492;-88
2022/07/18 06:08:00;;;;;;;0.00;0.00;;;;;;;;;;5014873;28;20033;-87
2022/07/18 06:10:26;;;;;;;0.00;0.00;;;;;;;;;;4998241;28;20509;-87
2022/07/18 06:12:53;;;;;;;0.00;0.00;;;;;;;;;;5014719;28;20072;-87
2022/07/18 06:15:19;;;;;;;0.00;0.00;;;;;;;;;;5014911;28;20448;-87
2022/07/18 06:17:45;;;;;;;0.00;0.00;;;;;;;;;;5014648;28;20120;-87
2022/07/18 06:20:11;;;;;;;0.00;0.00;;;;;;;;;;5032202;28;20457;-88
2022/07/18 06:22:37;;;;;;;0.00;0.00;;;;;;;;;;5014738;28;20485;-88
2022/07/18 06:25:04;;;;;;;0.00;0.00;;;;;;;;;;5014533;28;20046;-88
2022/07/18 06:27:30;;;;;;;0.00;0.00;;;;;;;;;;5014680;28;20061;-88
2022/07/18 06:29:56;;;;;;;0.00;0.00;;;;;;;;;;5014617;28;20183;-88
2022/07/18 06:32:22;;;;;;;0.00;0.00;;;;;;;;;;5014939;28;20057;-87
2022/07/18 06:34:48;;;;;;;0.00;0.00;;;;;;;;;;4998170;28;20400;-87
2022/07/18 06:37:14;;;;;;;0.00;0.00;;;;;;;;;;5014581;28;20091;-87
2022/07/18 06:39:40;;;;;;;0.00;0.00;;;;;;;;;;5014760;28;20107;-87
2022/07/18 06:42:06;;;;;;;0.00;0.00;;;;;;;;;;5014222;28;20049;-88
2022/07/18 06:44:32;;;;;;;0.00;0.00;;;;;;;;;;5014888;28;20048;-88
2022/07/18 06:46:59;;;;;;;0.00;0.00;;;;;;;;;;5014517;28;20049;-87
2022/07/18 06:49:25;;;;;;;0.00;0.00;;;;;;;;;;4998140;28;20044;-87
2022/07/18 06:51:51;;;;;;;0.00;0.00;;;;;;;;;;5014160;28;20046;-87
2022/07/18 06:54:17;;;;;;;0.00;0.00;;;;;;;;;;5014640;28;20120;-88
2022/07/18 06:56:43;;;;;;;0.00;0.00;;;;;;;;;;5014187;28;20088;-87
2022/07/18 06:59:09;;;;;;;0.00;0.00;;;;;;;;;;5000736;28;20037;-89
2022/07/18 07:01:35;;;;;;;0.00;0.00;;;;;;;;;;5035342;28;20037;-86
2022/07/18 07:04:01;;;;;;;0.00;0.00;;;;;;;;;;5026719;28;20076;-87
2022/07/18 07:06:27;;;;;;;0.00;0.00;;;;;;;;;;5034426;28;20480;-94
2022/07/18 07:08:53;;;;;;;0.00;0.00;;;;;;;;;;5034700;28;20081;-92
2022/07/18 07:11:21;;;;;;;0.00;0.00;;;;;;;;;;5034659;28;20033;-93
2022/07/18 07:13:47;;;;;;;0.00;0.00;;;;;;;;;;5020607;28;20057;-94
2022/07/18 07:16:13;;;;;;;0.00;0.00;;;;;;;;;;5017837;28;20493;-94
2022/07/18 07:18:40;;;;;;;0.00;0.00;;;;;;;;;;5035086;28;20052;-93
2022/07/18 07:21:08;;;;;;;0.00;0.00;;;;;;;;;;5018981;28;20048;-93
2022/07/18 07:23:36;;;;;;;0.00;0.00;;;;;;;;;;5035092;28;20046;-94
2022/07/18 07:26:05;;;;;;;0.00;0.00;;;;;;;;;;5034345;28;20037;-94
2022/07/18 07:28:31;;;;;;;0.00;0.00;;;;;;;;;;5036174;28;20047;-93
2022/07/18 07:30:57;;;;;;;0.00;0.00;;;;;;;;;;5033667;28;20433;-86
2022/07/18 07:33:23;;;;;;;0.00;0.00;;;;;;;;;;5033830;28;20056;-88
2022/07/18 07:35:49;;;;;;;0.00;0.00;;;;;;;;;;5033497;28;20481;-87
2022/07/18 07:38:18;;;;;;;0.00;0.00;;;;;;;;;;5033810;28;20041;-87
2022/07/18 07:40:45;;;;;;;0.00;0.00;;;;;;;;;;5033578;28;20366;-88
2022/07/18 07:43:12;;;;;;;0.00;0.00;;;;;;;;;;5033433;28;20056;-87
2022/07/18 07:45:38;;;;;;;0.00;0.00;;;;;;;;;;5034659;28;20045;-87
2022/07/18 07:48:04;;;;;;;0.00;0.00;;;;;;;;;;5033716;28;20125;-87
2022/07/18 07:50:30;;;;;;;0.00;0.00;;;;;;;;;;5033229;28;20094;-88
2022/07/18 07:52:57;;;;;;;0.00;0.00;;;;;;;;;;5034791;28;20037;-86
2022/07/18 07:55:23;;;;;;;0.00;0.00;;;;;;;;;;5033602;28;20041;-89
2022/07/18 07:57:49;;;;;;;0.00;0.00;;;;;;;;;;5033324;28;20037;-88
2022/07/18 08:00:15;;;;;;;0.00;0.00;;;;;;;;;;5034482;28;20049;-87
2022/07/18 08:03:02;;;;;;;0.00;0.00;;;;;;;;;;5033087;28;20045;-89
2022/07/18 08:05:28;;;;;;;0.00;0.00;;;;;;;;;;5032936;28;20038;-89
2022/07/18 08:07:54;;;;;;;0.00;0.00;;;;;;;;;;5032931;28;20076;-88
2022/07/18 08:10:21;;;;;;;0.00;0.00;;;;;;;;;;5032903;28;20135;-88
2022/07/18 08:12:47;;;;;;;0.00;0.00;;;;;;;;;;5032521;28;20074;-89
2022/07/18 08:15:13;;;;;;;0.00;0.00;;;;;;;;;;5033128;28;20045;-89
2022/07/18 08:17:39;;;;;;;0.00;0.00;;;;;;;;;;5032632;28;20041;-89
2022/07/18 08:20:05;;;;;;;0.00;0.00;;;;;;;;;;5033185;28;20041;-90
2022/07/18 08:22:31;;;;;;;0.00;0.00;;;;;;;;;;5032603;28;20422;-90
2022/07/18 08:24:57;;;;;;;0.00;0.00;;;;;;;;;;5032800;28;20052;-92
2022/07/18 08:27:23;;;;;;;0.00;0.00;;;;;;;;;;5032639;28;20428;-89
2022/07/18 08:29:49;;;;;;;0.00;0.00;;;;;;;;;;5032873;28;20099;-88
2022/07/18 08:32:15;;;;;;;0.00;0.00;;;;;;;;;;5032909;28;20045;-89
2022/07/18 08:34:41;;;;;;;0.00;0.00;;;;;;;;;;5032593;28;20132;-86
2022/07/18 08:37:07;;;;;;;0.00;0.00;;;;;;;;;;5032576;28;20041;-90
2022/07/18 08:39:33;;;;;;;0.00;0.00;;;;;;;;;;5033071;28;20499;-92
2022/07/18 08:42:01;;;;;;;0.00;0.00;;;;;;;;;;5032640;28;20041;-92
2022/07/18 08:44:30;;;;;;;0.00;0.00;;;;;;;;;;5032794;28;20435;-93
2022/07/18 08:46:58;;;;;;;0.00;0.00;;;;;;;;;;5031326;28;20037;-91
2022/07/18 08:49:24;;;;;;;0.00;0.00;;;;;;;;;;5032362;28;20084;-90
2022/07/18 08:51:51;;;;;;;0.00;0.00;;;;;;;;;;5032199;28;20125;-89
2022/07/18 08:54:17;;;;;;;0.00;0.00;;;;;;;;;;5033624;28;20033;-86
2022/07/18 08:56:43;;;;;;;0.00;0.00;;;;;;;;;;5032369;28;20480;-86
2022/07/18 08:59:09;;;;;;;0.00;0.00;;;;;;;;;;5033880;28;20042;-86
2022/07/18 09:01:35;;;;;;;0.00;0.00;;;;;;;;;;5031830;28;20088;-86
2022/07/18 09:04:17;;;;;;;0.00;0.00;;;;;;;;;;5032031;28;20124;-86
2022/07/18 09:06:47;;;;;;;0.00;0.00;;;;;;;;;;5032088;28;20045;-86
2022/07/18 09:09:14;;;;;;;0.00;0.00;;;;;;;;;;5033391;28;20481;-87
2022/07/18 09:11:51;;;;;;;0.00;0.00;;;;;;;;;;5031988;28;20041;-87
2022/07/18 09:14:35;;;;;;;0.00;0.00;;;;;;;;;;5031808;28;20053;-87
2022/07/18 09:17:02;;;;;;;0.00;0.00;;;;;;;;;;5031746;28;20124;-87
2022/07/18 09:19:28;;;;;;;0.00;0.00;;;;;;;;;;5032070;28;20502;-86
2022/07/18 09:21:54;;;;;;;0.00;0.00;;;;;;;;;;5031024;28;20111;-87
2022/07/18 09:24:20;;;;;;;0.00;0.00;;;;;;;;;;5031656;28;20042;-87
2022/07/18 09:26:46;;;;;;;0.00;0.00;;;;;;;;;;5031759;28;20124;-87
2022/07/18 09:29:16;;;;;;;0.00;0.00;;;;;;;;;;5031803;28;20079;-86
2022/07/18 09:31:49;;;;;;;0.00;0.00;;;;;;;;;;5031731;28;20120;-87
2022/07/18 09:34:32;;;;;;;0.00;0.00;;;;;;;;;;5033014;28;20038;-86
2022/07/18 09:36:58;;;;;;;0.00;0.00;;;;;;;;;;5031407;28;20037;-87
2022/07/18 09:39:24;;;;;;;0.00;0.00;;;;;;;;;;5031615;28;20034;-86
2022/07/18 09:41:50;;;;;;;0.00;0.00;;;;;;;;;;5031277;28;20635;-86
2022/07/18 09:44:17;;;;;;;0.00;0.00;;;;;;;;;;5032891;28;20464;-89
2022/07/18 09:47:02;;;;;;;0.00;0.00;;;;;;;;;;5032804;28;20393;-92
2022/07/18 09:49:31;;;;;;;0.00;0.00;;;;;;;;;;5031423;28;20041;-87
2022/07/18 09:52:05;;;;;;;0.00;0.00;;;;;;;;;;5031281;28;20051;-87
2022/07/18 09:54:42;;;;;;;0.00;0.00;;;;;;;;;;5031432;28;20038;-86
2022/07/18 09:57:08;;;;;;;0.00;0.00;;;;;;;;;;5031272;28;20041;-87
2022/07/18 09:59:35;;;;;;;0.00;0.00;;;;;;;;;;5031537;28;20434;-86
2022/07/18 10:02:01;;;;;;;0.00;0.00;;;;;;;;;;5032433;28;20099;-87
2022/07/18 10:04:27;;;;;;;0.00;0.00;;;;;;;;;;5031247;28;20041;-87
2022/07/18 10:06:53;;;;;;;0.00;0.00;;;;;;;;;;5031314;28;20037;-87
2022/07/18 10:09:19;;;;;;;0.00;0.00;;;;;;;;;;5031524;28;20124;-87
2022/07/18 10:11:45;;;;;;;0.00;0.00;;;;;;;;;;5031160;28;20037;-87
2022/07/18 10:14:11;;;;;;;0.00;0.00;;;;;;;;;;5030797;28;20515;-89
2022/07/18 10:16:38;;;;;;;0.00;0.00;;;;;;;;;;5031404;28;20057;-87
2022/07/18 10:19:04;;;;;;;0.00;0.00;;;;;;;;;;5031009;28;20049;-86
2022/07/18 10:21:31;;;;;;;0.00;0.00;;;;;;;;;;5031271;28;20099;-87
2022/07/18 10:24:00;;;;;;;0.00;0.00;;;;;;;;;;5032300;28;20037;-87
2022/07/18 10:26:27;;;;;;;0.00;0.00;;;;;;;;;;5031026;28;20080;-86
2022/07/18 10:28:56;;;;;;;0.00;0.00;;;;;;;;;;5030900;28;20045;-86
2022/07/18 10:31:22;;;;;;;0.00;0.00;;;;;;;;;;5032234;28;20037;-86
2022/07/18 10:33:49;;;;;;;0.00;0.00;;;;;;;;;;5034551;28;20517;-87
2022/07/18 10:36:16;;;;;;;0.00;0.00;;;;;;;;;;5035136;28;20112;-87
2022/07/18 10:39:01;;;;;;;0.00;0.00;;;;;;;;;;5034682;28;20068;-88
2022/07/18 10:41:27;;;;;;;0.00;0.00;;;;;;;;;;5034823;28;20484;-89
2022/07/18 10:43:53;;;;;;;0.00;0.00;;;;;;;;;;5034338;28;20045;-88
2022/07/18 10:46:19;;;;;;;0.00;0.00;;;;;;;;;;5034978;28;20052;-88
2022/07/18 10:48:52;;;;;;;0.00;0.00;;;;;;;;;;5034378;28;20048;-88
2022/07/18 10:51:18;;;;;;;0.00;0.00;;;;;;;;;;5034772;28;20072;-89
2022/07/18 10:53:53;;;;;;;0.00;0.00;;;;;;;;;;5034357;28;20050;-88
2022/07/18 10:56:19;;;;;;;;;;;;;;;;;;5035057;28;20124;-87
2022/07/18 10:58:45;;;;;;;0.00;0.00;;;;;;;;;;5035614;28;19963;-88
2022/07/18 11:01:16;;;;;;;0.00;0.00;;;;;;;;;;5034265;28;20136;-87
2022/07/18 11:03:42;;;;;;;0.00;0.00;;;;;;;;;;5035587;28;20049;-87
2022/07/18 11:06:08;;;;;;;0.10;0.00;;;;;;;;;;5034211;28;20116;-89
2022/07/18 11:08:34;;;;;;;0.00;0.00;;;;;;;;;;5033928;28;20128;-88
2022/07/18 11:11:03;;;;;;;0.00;0.00;;;;;;;;;;5034181;28;20518;-88
2022/07/18 11:13:37;;;;;;;0.00;0.00;;;;;;;;;;5033828;28;20148;-88
2022/07/18 11:16:09;;;;;;;0.00;0.00;;;;;;;;;;5035616;28;20056;-88
2022/07/18 11:18:42;;;;;;;0.00;0.00;;;;;;;;;;5033827;28;20062;-89
2022/07/18 11:21:28;;;;;;;0.00;0.00;;;;;;;;;;5034045;28;20069;-88
2022/07/18 11:23:54;;;;;;;0.00;0.00;;;;;;;;;;5033439;28;20086;-90
2022/07/18 11:26:21;;;;;;;0.00;0.00;;;;;;;;;;5033943;28;20501;-88
2022/07/18 11:28:51;;;;;;;0.00;0.00;;;;;;;;;;5033620;28;20037;-89
2022/07/18 11:31:17;;;;;;;0.00;0.00;;;;;;;;;;5034962;28;20052;-88
2022/07/18 11:33:47;;;;;;;0.00;0.00;;;;;;;;;;5033457;28;20057;-88
2022/07/18 11:36:18;;;;;;;0.00;0.00;;;;;;;;;;5033927;28;20099;-88
2022/07/18 11:39:03;;;;;;;0.00;0.00;;;;;;;;;;5033660;28;20480;-89
2022/07/18 11:41:29;;;;;;;0.00;0.00;;;;;;;;;;5033522;28;20045;-87
2022/07/18 11:43:56;;;;;;;0.00;0.00;;;;;;;;;;5032619;28;20042;-89
2022/07/18 11:46:22;;;;;;;0.00;0.00;;;;;;;;;;5033737;28;20540;-87
2022/07/18 11:48:57;;;;;;;0.00;0.00;;;;;;;;;;5034476;28;20045;-90
2022/07/18 11:51:23;;;;;;;0.00;0.00;;;;;;;;;;5033357;28;20046;-88
2022/07/18 11:53:50;;;;;;;0.00;0.00;;;;;;;;;;5034393;28;20049;-89
2022/07/18 11:56:20;;;;;;;0.00;0.00;;;;;;;;;;5033625;28;20041;-87
2022/07/18 11:58:48;;;;;;;0.40;0.10;;;;;;;;;;5033309;28;20068;-89
2022/07/18 12:01:14;;;;;;;0.00;0.00;;;;;;;;;;5033165;28;20049;-88
2022/07/18 12:03:45;;;;;;;0.00;0.00;;;;;;;;;;5032963;28;20045;-87
2022/07/18 12:06:12;;;;;;;0.00;0.00;;;;;;;;;;5033151;28;20052;-89
2022/07/18 12:08:44;;;;;;;0.00;0.00;;;;;;;;;;5016529;28;20034;-89
2022/07/18 12:11:14;;;;;;;0.00;0.00;;;;;;;;;;5033209;28;20400;-89
2022/07/18 12:13:40;;;;;;;0.00;0.00;;;;;;;;;;5032822;28;20152;-89
2022/07/18 12:16:06;;;;;;;0.00;0.00;;;;;;;;;;5032995;28;20060;-90
2022/07/18 12:18:32;;;;;;;0.00;0.00;;;;;;;;;;5032698;28;20073;-88
2022/07/18 12:21:11;;;;;;;0.00;0.00;;;;;;;;;;5032820;28;20072;-88
2022/07/18 12:23:36;;;;;;;0.00;0.00;;;;;;;;;;5033982;28;20048;-89
2022/07/18 12:26:02;;;;;;;0.00;0.00;;;;;;;;;;5032777;28;20037;-89
2022/07/18 12:28:29;;;;;;;0.00;0.00;;;;;;;;;;5032315;28;20041;-88
2022/07/18 12:30:55;;;;;;;0.00;0.00;;;;;;;;;;5033174;28;20492;-89
2022/07/18 12:33:22;;;;;;;0.00;0.00;;;;;;;;;;5025471;28;20045;-89
2022/07/18 12:35:55;;;;;;;0.00;0.00;;;;;;;;;;5014055;28;20128;-87
2022/07/18 12:38:21;;;;;;;0.00;0.00;;;;;;;;;;4996543;28;20077;-88
2022/07/18 12:40:55;;;;;;;0.03;0.00;;;;;;;;;;4996584;28;20088;-88
2022/07/18 12:43:24;;;;;;;0.00;0.00;;;;;;;;;;4996479;28;20054;-88
2022/07/18 12:45:50;;;;;;;0.00;0.00;;;;;;;;;;4996586;28;20418;-89
2022/07/18 12:48:16;;;;;;;0.00;0.00;;;;;;;;;;4996704;28;20468;-88
2022/07/18 12:50:42;;;;;;;0.00;0.00;;;;;;;;;;4995929;28;20125;-89
2022/07/18 12:53:09;;;;;;;0.00;0.00;;;;;;;;;;5014077;28;20037;-89
2022/07/18 12:55:35;;;;;;;0.00;0.00;;;;;;;;;;4995130;28;20061;-88
2022/07/18 12:58:01;;;;;;;0.00;0.00;;;;;;;;;;4996363;28;20092;-88
2022/07/18 13:00:28;;;;;;;0.00;0.00;;;;;;;;;;4979611;28;20084;-89
2022/07/18 13:02:56;;;;;;;0.00;0.00;;;;;;;;;;5013704;28;20056;-90
2022/07/18 13:05:23;;;;;;;0.00;0.00;;;;;;;;;;5013355;28;20042;-88
2022/07/18 13:07:49;;;;;;;0.00;0.00;;;;;;;;;;4996229;28;20080;-89
2022/07/18 13:10:15;;;;;;;0.00;0.00;;;;;;;;;;4995891;28;20045;-88
2022/07/18 13:12:41;;;;;;;0.00;0.00;;;;;;;;;;4995926;28;20045;-88
2022/07/18 13:15:07;;;;;;;0.00;0.00;;;;;;;;;;4995936;28;20548;-89
2022/07/18 13:17:33;;;;;;;0.00;0.00;;;;;;;;;;4995808;28;20121;-89
2022/07/18 13:19:59;;;;;;;0.00;0.00;;;;;;;;;;4995429;28;20125;-87
2022/07/18 13:22:25;;;;;;;0.00;0.00;;;;;;;;;;4995913;28;20128;-88
2022/07/18 13:24:51;;;;;;;0.00;0.00;;;;;;;;;;4995478;28;20515;-88
2022/07/18 13:27:19;;;;;;;0.00;0.00;;;;;;;;;;4995736;28;20042;-89
2022/07/18 13:29:46;;;;;;;0.00;0.00;;;;;;;;;;4995337;28;20050;-89
2022/07/18 13:32:13;;;;;;;0.00;0.00;;;;;;;;;;5013169;28;20049;-89
2022/07/18 13:34:39;;;;;;;0.00;0.00;;;;;;;;;;4995616;28;20064;-88
2022/07/18 13:37:05;;;;;;;0.00;0.00;;;;;;;;;;4995568;28;20038;-89
2022/07/18 13:39:31;;;;;;;0.00;0.00;;;;;;;;;;4995350;28;20125;-90
2022/07/18 13:41:57;;;;;;;0.00;0.00;;;;;;;;;;4979276;28;20042;-89
2022/07/18 13:44:23;;;;;;;0.00;0.00;;;;;;;;;;4995358;28;20042;-90
2022/07/18 13:46:49;;;;;;;0.00;0.00;;;;;;;;;;4979542;28;20042;-88
2022/07/18 13:49:16;;;;;;;0.00;0.00;;;;;;;;;;4995426;28;20774;-90
2022/07/18 13:51:42;;;;;;;0.00;0.00;;;;;;;;;;5013020;28;20386;-90
2022/07/18 13:54:08;;;;;;;0.00;0.00;;;;;;;;;;4979210;28;20054;-89
2022/07/18 13:56:34;;;;;;;0.00;0.00;;;;;;;;;;4979131;28;20046;-89
2022/07/18 13:59:00;;;;;;;0.00;0.00;;;;;;;;;;4979453;28;20080;-89
2022/07/18 14:01:26;;;;;;;0.00;0.00;;;;;;;;;;4995087;28;20077;-90
2022/07/18 14:03:53;;;;;;;0.00;0.00;;;;;;;;;;4995237;28;20045;-90
2022/07/18 14:06:19;;;;;;;0.00;0.00;;;;;;;;;;4978916;28;20045;-90
2022/07/18 14:08:44;;;;;;;0.00;0.00;;;;;;;;;;4999214;28;20042;-89
2022/07/18 14:11:11;;;;;;;0.00;0.00;;;;;;;;;;4999068;28;20046;-89
2022/07/18 14:13:37;;;;;;;0.00;0.00;;;;;;;;;;4999029;28;20058;-89
2022/07/18 14:16:03;;;;;;;0.00;0.00;;;;;;;;;;4998956;28;20046;-89
2022/07/18 14:18:29;;;;;;;0.00;0.00;;;;;;;;;;4999083;28;20096;-90
2022/07/18 14:20:54;;;;;;;0.00;0.00;;;;;;;;;;4998830;28;20049;-91
2022/07/18 14:23:21;;;;;;;0.00;0.00;;;;;;;;;;4999296;28;20049;-89
2022/07/18 14:25:47;;;;;;;0.00;0.00;;;;;;;;;;4998626;28;20474;-89
2022/07/18 14:28:13;;;;;;;0.00;0.00;;;;;;;;;;4998669;28;20474;-89
2022/07/18 14:30:39;;;;;;;0.00;0.00;;;;;;;;;;4998424;28;20034;-89
2022/07/18 14:33:05;;;;;;;0.00;0.00;;;;;;;;;;4998698;28;20057;-89
2022/07/18 14:35:32;;;;;;;0.00;0.00;;;;;;;;;;4998534;28;20046;-89
2022/07/18 14:37:58;;;;;;;0.00;0.00;;;;;;;;;;4998956;28;20084;-90
2022/07/18 14:40:24;;;;;;;0.00;0.00;;;;;;;;;;4998941;28;20124;-89
2022/07/18 14:42:50;;;;;;;0.00;0.00;;;;;;;;;;4998548;28;20046;-89
2022/07/18 14:45:16;;;;;;;0.00;0.00;;;;;;;;;;4998362;28;20061;-89